Franksville, WI

5:34 AM CDT on October 02, 2014 (GMT -0500)
Gen Mitchell International | Change Station
CLOSE
Current Station
Airport
Location: Milwaukee,
Elevation: 692 ft
Nearby Weather Stations

Elev 692 ft 42.96 °N, 87.90 °W | Updated 42 minutes ago

Overcast
Overcast
62 °F
Feels Like 62 °F
N
5
Wind Variable Wind from SSE

Today
High -- | Low -- °F
--% Chance of Precip.
Yesterday
High -- | Low -- °F
Precip. -- in
6:50 AM 6:31 PM
First Quarter, 57% visible
Pressure 29.86 in
Visibility 10.0 miles
Clouds Mostly Cloudy 10000 ft
Overcast 11000 ft
Dew Point 56 °F
Humidity 80%
Rainfall 0.01 in
Snow Depth Not available.
UV 0 out of 12
Pollen 2.40 out of 12
PM2.5 Good
Flu Activity Not available.
METAR KMKE 020952Z 15004KT 10SM BKN100 OVC110 17/13 A2985 RMK AO2 SLP109 T01670133

More Conditions Fewer Conditions

Pressure 29.86 in
Visibility 10.0 miles
Clouds Mostly Cloudy 10000 ft
Overcast 11000 ft
Dew Point 56 °F
Humidity 80%
Rainfall 0.01 in
Snow Depth Not available.
UV 0 out of 12
Pollen 2.40 out of 12
PM2.5 Good
Flu Activity Not available.
METAR KMKE 020952Z 15004KT 10SM BKN100 OVC110 17/13 A2985 RMK AO2 SLP109 T01670133

More Conditions Fewer Conditions

10-Day Weather Forecast

Almanac

Astronomy

Oct. 02, 2014 Rise Set
Actual Time 6:50 AM CDT 6:31 PM CDT
Civil Twilight 6:21 AM CDT 6:59 PM CDT
Nautical Twilight 5:49 AM CDT 7:32 PM CDT
Astronomical Twilight 5:16 AM CDT 8:05 PM CDT
Moon 2:44 PM CDT No Moon Set
Length of Visible Light 12h 37m
Length of Day
11h 41m
Tomorrow will be 2m 52s shorter.
First Quarter, 57% of the Moon is Illuminated
Today
First Quarter
Oct 8
Full
Oct 15
Last Quarter
Oct 23
New
Oct 30
First Quarter

Today's Extremes

State Highs State Lows

Community

WunderPhotos

Upload Photos

1,758,210 photos uploaded!

WunderBlogs® & News

Nearby

Air Quality

  Air Quality AQ Index Pollutant
Yesterday Good
OZONE
Yesterday Good
PM2.5
Current Good
PM2.5
Thursday Good
OZONE
Thursday Good
PM2.5
Friday Good
OZONE
Friday Good
PM2.5
Saturday Good
OZONE
Saturday Good
PM2.5
Sunday Good
OZONE
Sunday Good
PM2.5

Snow Depth

Station Depth Elevation
No new snow has been reported.

Earthquake Activity

City Distance Mag. Time & Date
No recent earthquake activity has been reported nearby.
Minimum magnitude displayed is 2.5.

Coastal Water Temperatures

Place Temperature
No Stations Reporting

Nearby Weather Stations